AUTO METAR SJOY 180520Z 12007KT BKN002 11/11 Q1018